Time;durP1;ratioP1;P1;durP2;ratioP2;P2;SDS_P1;SDS_P2;PMS_P1;PMS_P2;Temp;Humidity;BMP_temperature;BMP_pressure;BME280_temperature;BME280_humidity;BME280_pressure;Samples;Min_cycle;Max_cycle;Signal;HPM_P1;HPM_P2
2023/01/27 00:00:28;;;;;;;;;;;;;;;0.94;100.00;98000.03;5346856;26;20061;-79
2023/01/27 00:02:55;;;;;;;46.92;18.65;;;;;;;1.10;100.00;98001.66;5346064;26;19971;-79
2023/01/27 00:05:22;;;;;;;44.13;18.85;;;;;;;0.90;100.00;97996.69;5346188;26;20066;-79
2023/01/27 00:07:49;;;;;;;45.90;17.52;;;;;;;1.28;100.00;97999.00;5346425;26;20552;-79
2023/01/27 00:10:18;;;;;;;42.75;17.40;;;;;;;0.75;100.00;97994.22;5346035;26;20080;-79
2023/01/27 00:15:32;;;;;;;46.65;20.05;;;;;;;1.01;100.00;97997.47;5329355;26;20101;-79
2023/01/27 00:18:00;;;;;;;42.50;18.37;;;;;;;1.15;100.00;97992.28;5346386;26;20067;-79
2023/01/27 00:26:07;;;;;;;48.38;18.40;;;;;;;1.20;99.38;97990.59;5329962;26;20518;-79
2023/01/27 00:28:34;;;;;;;44.78;19.60;;;;;;;0.77;100.00;97983.22;5346236;26;20055;-79
2023/01/27 00:31:02;;;;;;;39.45;17.02;;;;;;;0.50;100.00;97983.31;5345802;26;20117;-79
2023/01/27 00:33:29;;;;;;;43.63;17.02;;;;;;;0.64;100.00;97986.66;5346429;26;20399;-79
2023/01/27 00:35:57;;;;;;;;;;;;;;;0.66;100.00;97984.13;5346781;26;20384;-79
2023/01/27 00:38:26;;;;;;;41.13;17.58;;;;;;;0.71;100.00;97984.91;5326191;26;20315;-79
2023/01/27 00:43:39;;;;;;;46.40;19.25;;;;;;;0.89;100.00;97989.91;5345993;26;20061;-79
2023/01/27 00:46:06;;;;;;;;;;;;;;;1.26;99.14;97989.69;5346428;26;20048;-79
2023/01/27 00:48:33;;;;;;;49.50;18.30;;;;;;;1.05;100.00;97988.97;5346198;26;20011;-78
2023/01/27 00:51:00;;;;;;;44.30;18.60;;;;;;;1.10;98.88;97987.25;5345761;26;20478;-79
2023/01/27 00:53:27;;;;;;;39.60;17.30;;;;;;;1.33;96.88;97992.19;5345987;26;20056;-79
2023/01/27 00:55:54;;;;;;;43.72;17.65;;;;;;;1.95;94.20;97984.91;5326627;26;20048;-79
2023/01/27 00:58:21;;;;;;;;;;;;;;;1.78;93.82;98002.00;5346054;26;20466;-79
2023/01/27 01:00:48;;;;;;;43.72;18.65;;;;;;;1.98;93.18;97995.87;5346281;26;19963;-79
2023/01/27 01:03:15;;;;;;;39.58;17.05;;;;;;;1.14;97.09;97995.69;5346166;26;20167;-79
2023/01/27 01:05:41;;;;;;;;;;;;;;;1.37;97.08;97998.91;5345806;26;20053;-79
2023/01/27 01:08:08;;;;;;;41.28;17.33;;;;;;;1.57;95.64;98000.47;5346265;26;19948;-79
2023/01/27 01:10:36;;;;;;;;;;;;;;;1.57;95.30;98008.94;5346487;26;20398;-79
2023/01/27 01:13:03;;;;;;;;;;;;;;;1.66;93.70;98003.81;5346195;26;20001;-78
2023/01/27 01:15:30;;;;;;;38.95;15.57;;;;;;;1.71;93.30;97997.00;5346363;26;19960;-78
2023/01/27 01:17:56;;;;;;;;;;;;;;;1.40;95.20;98004.00;5346455;26;20048;-78
2023/01/27 01:20:23;;;;;;;42.08;17.05;;;;;;;1.38;96.08;98004.84;5345771;26;19972;-79
2023/01/27 01:22:50;;;;;;;;;;;;;;;1.87;94.35;97999.38;5346544;26;20060;-79
2023/01/27 01:25:17;;;;;;;39.58;16.15;;;;;;;1.76;93.12;97998.63;5346351;26;19970;-79
2023/01/27 01:27:44;;;;;;;40.65;15.30;;;;;;;1.55;93.61;97990.31;5345705;26;20052;-79
2023/01/27 01:30:11;;;;;;;35.53;15.20;;;;;;;0.64;96.88;97989.22;5346068;26;20069;-79
2023/01/27 01:32:39;;;;;;;35.33;14.00;;;;;;;1.01;96.90;97992.38;5346109;26;20056;-79
2023/01/27 01:35:06;;;;;;;;;;;;;;;0.39;99.08;97990.97;5326823;26;20052;-79
2023/01/27 01:37:32;;;;;;;32.40;13.95;;;;;;;0.37;100.00;97982.53;5346157;26;19947;-79
2023/01/27 01:39:59;;;;;;;;;;;;;;;0.64;99.30;97986.66;5337472;26;228740;-78
2023/01/27 01:42:51;;;;;;;32.95;13.52;;;;;;;0.45;100.00;97985.03;5346043;26;20286;-78
2023/01/27 01:45:30;;;;;;;31.25;14.27;;;;;;;0.25;100.00;97980.87;5346265;26;20056;-78
2023/01/27 01:48:00;;;;;;;34.70;14.65;;;;;;;0.41;100.00;97979.09;5345547;26;20056;-79
2023/01/27 01:50:26;;;;;;;38.78;15.85;;;;;;;0.46;100.00;97971.50;5326167;26;20126;-78
2023/01/27 01:52:53;;;;;;;;;;;;;;;0.47;100.00;97973.19;5346344;26;20060;-79
2023/01/27 01:55:21;;;;;;;39.17;15.40;;;;;;;0.76;100.00;97965.44;5326000;26;19992;-79
2023/01/27 01:57:48;;;;;;;36.33;15.63;;;;;;;1.02;99.12;97962.75;5345918;26;20052;-79
2023/01/27 02:00:16;;;;;;;35.15;15.25;;;;;;;1.03;98.22;97961.88;5345941;26;20067;-79
2023/01/27 02:02:43;;;;;;;40.15;16.10;;;;;;;0.94;98.94;97957.69;5325896;26;20060;-79
2023/01/27 02:05:17;;;;;;;37.70;15.95;;;;;;;1.04;98.52;97955.94;5345589;26;20116;-79
2023/01/27 02:08:19;;;;;;;36.05;16.35;;;;;;;1.33;96.34;97965.91;5326003;26;20460;-79
2023/01/27 02:10:47;;;;;;;42.83;16.60;;;;;;;1.40;95.74;97976.03;5314282;26;20624;-79
2023/01/27 02:13:13;;;;;;;38.33;15.38;;;;;;;1.40;95.79;97970.97;5345840;26;20056;-79
2023/01/27 02:15:40;;;;;;;36.85;15.55;;;;;;;1.32;95.94;97967.63;5345463;26;20108;-79
2023/01/27 02:18:08;;;;;;;36.03;15.80;;;;;;;0.97;97.84;97964.47;5346680;26;20097;-78
2023/01/27 02:20:40;;;;;;;34.20;15.30;;;;;;;0.96;98.01;97970.38;5327033;26;20071;-78
2023/01/27 02:23:29;;;;;;;39.17;15.95;;;;;;;0.75;99.80;97963.75;5326699;26;20061;-78
2023/01/27 02:26:26;;;;;;;53.97;31.77;;;;;;;0.60;100.00;97958.75;5346855;26;20117;-78
2023/01/27 02:28:57;;;;;;;40.00;17.40;;;;;;;0.90;99.47;97952.66;5346545;26;20090;-79
2023/01/27 02:31:24;;;;;;;40.50;16.80;;;;;;;1.27;97.98;97956.63;5326969;26;20065;-79
2023/01/27 02:33:54;;;;;;;47.38;18.35;;;;;;;1.40;97.04;97950.63;5346730;26;20059;-79
2023/01/27 02:36:21;;;;;;;42.25;18.25;;;;;;;1.50;95.84;97950.56;5346238;26;20357;-79
2023/01/27 02:38:52;;;;;;;37.40;15.63;;;;;;;1.73;94.71;97949.50;5326970;26;20048;-79
2023/01/27 02:41:34;;;;;;;36.67;16.52;;;;;;;1.97;93.37;97943.31;5326902;26;20057;-78
2023/01/27 02:44:01;;;;;;;36.50;15.82;;;;;;;2.23;91.35;97945.59;5326688;26;20059;-79
2023/01/27 02:46:28;;;;;;;38.58;15.77;;;;;;;1.97;92.55;97942.47;5346609;26;20456;-78
2023/01/27 02:48:55;;;;;;;40.05;16.90;;;;;;;2.30;90.79;97941.25;5346837;26;20757;-78
2023/01/27 02:51:22;;;;;;;;;;;;;;;2.46;89.68;97932.59;5346556;26;20064;-79
2023/01/27 02:53:49;;;;;;;35.38;15.32;;;;;;;2.52;89.12;97937.59;5346454;26;19971;-79
2023/01/27 02:56:16;;;;;;;33.75;15.23;;;;;;;2.64;88.36;97940.84;5346798;26;20100;-79
2023/01/27 02:58:42;;;;;;;;;;;;;;;2.65;87.89;97932.34;5346535;26;20106;-78
2023/01/27 03:01:09;;;;;;;36.67;15.23;;;;;;;2.80;87.06;97935.53;5346620;26;20013;-79
2023/01/27 03:03:42;;;;;;;36.38;16.00;;;;;;;2.76;87.17;97938.97;5346470;26;20078;-79
2023/01/27 03:06:10;;;;;;;36.60;15.80;;;;;;;2.86;86.68;97935.44;5346527;26;20165;-79
2023/01/27 03:08:37;;;;;;;34.83;15.02;;;;;;;3.30;82.80;97925.47;5346602;26;20181;-78
2023/01/27 03:11:03;;;;;;;;;;;;;;;2.96;85.19;97932.75;5346512;26;20078;-78
2023/01/27 03:13:30;;;;;;;36.67;16.30;;;;;;;3.29;82.87;97923.75;5337753;26;19971;-78
2023/01/27 03:18:48;;;;;;;35.55;14.95;;;;;;;2.75;84.54;97926.25;5346418;26;19966;-79
2023/01/27 03:21:18;;;;;;;39.55;17.55;;;;;;;2.85;84.13;97931.19;5346630;26;20075;-78
2023/01/27 03:23:47;;;;;;;39.00;16.73;;;;;;;2.72;84.06;97923.75;5346589;26;20117;-78
2023/01/27 03:26:15;;;;;;;38.83;16.05;;;;;;;2.98;82.15;97929.34;5346286;26;20072;-78
2023/01/27 03:28:42;;;;;;;41.92;18.23;;;;;;;3.01;82.23;97916.56;5346292;26;20045;-78
2023/01/27 03:31:20;;;;;;;41.10;17.05;;;;;;;2.77;83.27;97922.84;5346421;26;20057;-78
2023/01/27 03:33:47;;;;;;;37.42;16.35;;;;;;;2.64;84.07;97928.09;5346079;26;20051;-78
2023/01/27 03:47:17;;;;;;;34.88;16.05;;;;;;;2.66;84.48;97919.59;5346188;26;20063;-78
2023/01/27 03:49:44;;;;;;;;;;;;;;;2.62;84.16;97920.50;5346676;26;20059;-79
2023/01/27 03:52:11;;;;;;;37.92;16.35;;;;;;;2.43;85.33;97917.31;5346598;26;20018;-78
2023/01/27 03:54:37;;;;;;;;;;;;;;;2.67;84.44;97915.34;5346341;26;20057;-78
2023/01/27 03:57:04;;;;;;;42.17;17.45;;;;;;;2.92;82.94;97914.13;5346532;26;20020;-78
2023/01/27 03:59:32;;;;;;;34.97;15.68;;;;;;;2.65;84.07;97907.69;5346541;26;20429;-78
2023/01/27 04:07:34;;;;;;;37.08;16.50;;;;;;;2.34;85.57;97909.81;5346153;26;20067;-78
2023/01/27 04:10:03;;;;;;;37.40;16.30;;;;;;;2.30;85.88;97897.97;5346539;26;20045;-78
2023/01/27 04:12:30;;;;;;;37.33;16.02;;;;;;;2.32;85.86;97896.25;5346560;26;20386;-78
2023/01/27 04:14:57;;;;;;;40.42;17.30;;;;;;;2.70;83.59;97895.75;5346019;26;20056;-78
2023/01/27 04:17:23;;;;;;;;;;;;;;;2.59;83.33;97893.34;5346765;26;20102;-78
2023/01/27 04:19:50;;;;;;;34.05;14.55;;;;;;;2.41;83.95;97885.09;5346613;26;19947;-78
2023/01/27 04:22:17;;;;;;;;;;;;;;;2.27;84.05;97888.69;5326692;26;20060;-78
2023/01/27 04:24:44;;;;;;;33.92;14.07;;;;;;;2.05;85.18;97892.34;5326873;26;19971;-78
2023/01/27 04:27:12;;;;;;;;;;;;;;;2.27;84.29;97883.59;5346717;26;20052;-78
2023/01/27 04:29:40;;;;;;;36.45;14.60;;;;;;;2.35;82.54;97880.94;5326415;26;19966;-78
2023/01/27 04:32:08;;;;;;;32.92;13.95;;;;;;;2.28;82.78;97877.62;5326699;26;20432;-78
2023/01/27 04:34:36;;;;;;;35.08;15.25;;;;;;;1.89;84.31;97881.47;5326659;26;20128;-78
2023/01/27 04:37:04;;;;;;;37.25;14.90;;;;;;;1.57;85.65;97881.81;5345923;26;20067;-78
2023/01/27 04:39:32;;;;;;;35.53;14.82;;;;;;;1.63;85.48;97879.22;5326358;26;20056;-78
2023/01/27 04:41:59;;;;;;;39.65;15.82;;;;;;;1.55;85.43;97875.06;5345858;26;20458;-78
2023/01/27 04:44:26;;;;;;;36.30;14.40;;;;;;;1.48;85.41;97879.34;5346184;26;20056;-78
2023/01/27 04:46:55;;;;;;;;;;;;;;;1.59;85.20;97876.69;5346695;26;20316;-78
2023/01/27 04:49:22;;;;;;;35.35;14.77;;;;;;;1.39;85.78;97876.91;5346149;26;19963;-78
2023/01/27 04:51:49;;;;;;;32.75;15.23;;;;;;;1.41;85.71;97875.19;5346181;26;20064;-78
2023/01/27 04:54:16;;;;;;;;;;;;;;;1.41;85.64;97876.03;5346824;26;20066;-78
2023/01/27 04:56:56;;;;;;;38.85;15.20;;;;;;;1.44;85.25;97875.16;5326132;26;19963;-78
2023/01/27 04:59:24;;;;;;;35.97;15.02;;;;;;;1.44;85.23;97880.25;5346410;26;20099;-78
2023/01/27 05:01:51;;;;;;;39.10;15.77;;;;;;;1.82;83.81;97877.34;5326374;26;20403;-78
2023/01/27 05:04:18;;;;;;;35.25;14.32;;;;;;;1.79;83.49;97876.50;5345682;26;20056;-78
2023/01/27 05:06:44;;;;;;;;;;;;;;;1.42;84.28;97875.19;5346614;26;20048;-78
2023/01/27 05:09:11;;;;;;;34.88;14.35;;;;;;;0.51;89.30;97880.91;5346575;26;19948;-78
2023/01/27 05:11:38;;;;;;;37.63;15.52;;;;;;;1.01;86.98;97885.69;5345710;26;20395;-78
2023/01/27 05:14:05;;;;;;;;;;;;;;;1.01;86.95;97872.13;5346616;26;20057;-78
2023/01/27 05:16:32;;;;;;;36.30;15.00;;;;;;;1.19;85.80;97873.69;5346273;26;19960;-78
2023/01/27 05:18:59;;;;;;;33.92;14.77;;;;;;;1.33;85.65;97875.25;5345909;26;20101;-78
2023/01/27 05:21:29;;;;;;;;;;;;;;;1.50;84.45;97866.66;5346351;26;20059;-78
2023/01/27 05:23:56;;;;;;;35.10;14.73;;;;;;;1.45;85.15;97880.22;5346488;26;20013;-78
2023/01/27 05:26:26;;;;;;;40.33;15.98;;;;;;;1.03;86.88;97883.13;5345843;26;20066;-78
2023/01/27 05:28:56;;;;;;;36.08;15.18;;;;;;;1.01;86.30;97867.06;5346139;26;20044;-78
2023/01/27 05:31:25;;;;;;;41.65;16.60;;;;;;;1.04;86.61;97889.87;5345551;26;20060;-78
2023/01/27 05:33:54;;;;;;;39.53;16.33;;;;;;;1.00;86.79;97894.16;5346203;26;20059;-78
2023/01/27 05:36:22;;;;;;;39.55;15.35;;;;;;;1.35;85.29;97890.50;5346169;26;20052;-78
2023/01/27 05:38:49;;;;;;;39.38;16.42;;;;;;;1.60;83.57;97883.50;5345548;26;20048;-78
2023/01/27 05:41:16;;;;;;;;;;;;;;;1.28;85.40;97884.63;5346278;26;20057;-78
2023/01/27 05:43:44;;;;;;;36.92;15.15;;;;;;;1.32;86.03;97900.69;5346359;26;19994;-78
2023/01/27 05:46:13;;;;;;;36.65;15.68;;;;;;;1.40;85.99;97889.59;5345756;26;20056;-78
2023/01/27 05:48:42;;;;;;;44.22;16.92;;;;;;;1.36;86.48;97899.78;5345926;26;20127;-78
2023/01/27 05:51:10;;;;;;;38.47;15.85;;;;;;;1.26;87.52;97896.50;5345847;26;20125;-78
2023/01/27 05:53:41;;;;;;;41.45;16.17;;;;;;;1.58;86.81;97897.91;5346303;26;20067;-78
2023/01/27 05:56:09;;;;;;;38.80;16.87;;;;;;;1.71;85.55;97900.34;5346899;26;20056;-78
2023/01/27 05:58:37;;;;;;;42.67;17.23;;;;;;;1.90;85.73;97902.66;5327049;26;20044;-78
2023/01/27 06:01:12;;;;;;;39.85;16.17;;;;;;;2.15;83.84;97891.38;5346193;26;20593;-78
2023/01/27 06:03:40;;;;;;;43.53;17.42;;;;;;;1.79;86.02;97900.25;5346492;26;20061;-78
2023/01/27 06:06:08;;;;;;;39.65;16.05;;;;;;;1.38;89.00;97898.94;5346876;26;20703;-78
2023/01/27 06:08:36;;;;;;;40.72;17.45;;;;;;;1.49;88.61;97897.97;5326732;26;20048;-78
2023/01/27 06:11:03;;;;;;;39.53;16.27;;;;;;;1.69;87.95;97896.94;5346574;26;20061;-80
2023/01/27 06:13:31;;;;;;;39.40;16.20;;;;;;;1.47;89.37;97899.69;5346559;26;20064;-81
2023/01/27 06:15:58;;;;;;;38.90;16.15;;;;;;;1.70;88.69;97897.78;5346713;26;20382;-81
2023/01/27 06:18:24;;;;;;;40.58;16.33;;;;;;;1.83;88.58;97904.44;5346413;26;20058;-79
2023/01/27 06:20:51;;;;;;;41.42;17.17;;;;;;;1.85;87.94;97902.72;5345938;26;20399;-80
2023/01/27 06:23:18;;;;;;;;;;;;;;;1.73;88.83;97902.84;5346955;26;20139;-80
2023/01/27 06:25:47;;;;;;;37.30;15.25;;;;;;;1.81;89.10;97900.22;5346667;26;19963;-80
2023/01/27 06:28:14;;;;;;;40.45;15.82;;;;;;;1.91;88.83;97892.47;5346040;26;20055;-83
2023/01/27 06:30:55;;;;;;;41.03;16.20;;;;;;;1.97;88.64;97901.75;5346488;26;20403;-83
2023/01/27 06:33:22;;;;;;;36.05;15.98;;;;;;;2.26;85.79;97899.72;5346629;26;20057;-83
2023/01/27 06:35:49;;;;;;;39.38;16.30;;;;;;;2.20;86.62;97902.31;5326831;26;20066;-83
2023/01/27 06:38:16;;;;;;;39.10;16.70;;;;;;;2.19;86.63;97893.00;5346638;26;20040;-82
2023/01/27 06:40:43;;;;;;;;;;;;;;;2.04;87.52;97898.28;5346821;26;20068;-83
2023/01/27 06:43:13;;;;;;;38.90;15.32;;;;;;;2.03;87.28;97904.25;5346268;26;20009;-82
2023/01/27 06:45:40;;;;;;;40.65;15.60;;;;;;;1.80;89.18;97901.06;5346787;26;20391;-82
2023/01/27 06:48:07;;;;;;;;;;;;;;;1.92;89.15;97904.37;5346534;26;20181;-81
2023/01/27 06:50:35;;;;;;;40.33;16.55;;;;;;;2.33;87.54;97905.56;5326614;26;20215;-82
2023/01/27 06:53:04;;;;;;;39.50;16.20;;;;;;;2.17;88.56;97909.16;5346331;26;20069;-83
2023/01/27 06:55:32;;;;;;;42.88;15.68;;;;;;;2.33;88.14;97913.19;5341958;26;20380;-82
2023/01/27 06:58:00;;;;;;;43.47;16.25;;;;;;;2.45;87.21;97907.97;5324999;26;20056;-83
2023/01/27 07:00:28;;;;;;;46.28;17.10;;;;;;;2.45;87.03;97907.97;5346080;26;20087;-84
2023/01/27 07:02:55;;;;;;;39.70;16.00;;;;;;;2.53;86.07;97908.72;5344622;26;20411;-84
2023/01/27 07:05:22;;;;;;;43.15;16.25;;;;;;;2.50;86.45;97907.91;5344790;26;20105;-83
2023/01/27 07:07:49;;;;;;;40.55;16.00;;;;;;;2.13;88.92;97917.72;5345474;26;20048;-84
2023/01/27 07:10:16;;;;;;;;;;;;;;;2.28;88.62;97902.25;5345592;26;20064;-82
2023/01/27 07:12:43;;;;;;;38.58;15.60;;;;;;;2.37;89.32;97907.22;5344969;26;20298;-83
2023/01/27 07:15:10;;;;;;;37.28;15.93;;;;;;;2.23;90.19;97919.25;5346310;26;20056;-81
2023/01/27 07:17:37;;;;;;;43.28;17.48;;;;;;;2.22;90.34;97912.50;5345025;26;20068;-79
2023/01/27 07:20:07;;;;;;;36.25;16.02;;;;;;;1.65;91.75;97919.87;5345759;26;20399;-80
2023/01/27 07:22:34;;;;;;;42.97;16.90;;;;;;;2.04;91.29;97921.19;5344752;26;20064;-80
2023/01/27 07:25:01;;;;;;;39.40;15.38;;;;;;;1.93;90.49;97925.56;5346239;26;20067;-81
2023/01/27 07:27:28;;;;;;;41.55;17.58;;;;;;;1.89;91.65;97928.97;5345956;26;20048;-82
2023/01/27 07:29:55;;;;;;;;;;;;;;;2.29;89.88;97925.12;5346208;26;20060;-82
2023/01/27 07:32:22;;;;;;;39.08;14.82;;;;;;;2.73;86.95;97930.53;5351171;26;19967;-81
2023/01/27 07:34:48;;;;;;;;;;;;;;;2.67;87.05;97928.09;5352599;26;20052;-80
2023/01/27 07:37:15;;;;;;;43.15;15.48;;;;;;;2.44;88.25;97926.66;5350632;26;20574;-80
2023/01/27 07:39:42;;;;;;;41.22;15.07;;;;;;;2.21;90.68;97929.47;5346626;26;20067;-83
2023/01/27 07:42:09;;;;;;;;;;;;;;;1.77;92.84;97924.00;5345015;26;20073;-83
2023/01/27 07:44:36;;;;;;;38.50;14.13;;;;;;;1.84;92.32;97923.94;5345562;26;19959;-85
2023/01/27 07:47:04;;;;;;;;;;;;;;;1.38;95.42;97928.59;5345700;26;20169;-82
2023/01/27 07:49:31;;;;;;;;;;;;;;;1.66;95.09;97924.94;5345997;26;19960;-85
2023/01/27 07:51:58;;;;;;;37.75;13.90;;;;;;;1.81;93.77;97916.34;5324436;26;20328;-85
2023/01/27 07:54:25;;;;;;;37.65;14.45;;;;;;;1.31;95.79;97922.72;5345640;26;20052;-84
2023/01/27 07:56:51;;;;;;;;;;;;;;;1.63;94.73;97917.38;5345140;26;20388;-83
2023/01/27 07:59:18;;;;;;;39.15;15.15;;;;;;;2.02;93.00;97910.16;5345388;26;19960;-84
2023/01/27 08:01:45;;;;;;;38.40;13.82;;;;;;;1.89;93.38;97916.25;5344585;26;20056;-82
2023/01/27 08:04:14;;;;;;;35.30;13.30;;;;;;;2.13;91.53;97917.72;5345415;26;20068;-83
2023/01/27 08:06:42;;;;;;;42.03;15.10;;;;;;;1.96;92.73;97913.63;5345089;26;20343;-83
2023/01/27 08:09:08;;;;;;;36.78;14.82;;;;;;;2.01;92.61;97911.88;5345795;26;20785;-84
2023/01/27 08:11:36;;;;;;;38.08;13.40;;;;;;;1.98;92.86;97911.91;5344629;26;20067;-83
2023/01/27 08:14:02;;;;;;;35.83;13.48;;;;;;;1.86;92.23;97909.50;5345050;26;20498;-84
2023/01/27 08:16:29;;;;;;;;;;;;;;;1.93;93.01;97912.84;5345792;26;20044;-83
2023/01/27 08:18:57;;;;;;;39.70;14.63;;;;;;;2.20;91.32;97911.66;5345279;26;19974;-83
2023/01/27 08:21:24;;;;;;;37.88;14.87;;;;;;;2.25;90.71;97920.13;5344036;26;20060;-83
2023/01/27 08:23:52;;;;;;;45.67;14.93;;;;;;;1.95;92.69;97918.75;5345456;26;20374;-83
2023/01/27 08:26:19;;;;;;;37.60;13.68;;;;;;;1.97;92.35;97919.56;5345404;26;20071;-83
2023/01/27 08:28:46;;;;;;;;;;;;;;;1.88;94.17;97929.84;5346569;26;20118;-85
2023/01/27 08:31:15;;;;;;;34.38;11.85;;;;;;;1.96;93.09;97920.44;5344726;26;20001;-84
2023/01/27 08:33:44;;;;;;;37.45;12.98;;;;;;;2.15;93.31;97928.72;5345164;26;20707;-83
2023/01/27 08:36:13;;;;;;;39.55;14.00;;;;;;;1.77;94.66;97924.84;5345361;26;20049;-83
2023/01/27 08:38:41;;;;;;;38.97;14.73;;;;;;;1.82;94.78;97928.22;5345088;26;20060;-82
2023/01/27 08:41:11;;;;;;;39.65;14.13;;;;;;;1.60;96.86;97929.28;5344300;26;20056;-82
2023/01/27 08:43:39;;;;;;;42.15;14.23;;;;;;;1.37;98.42;97934.53;5325849;26;20052;-83
2023/01/27 08:46:07;;;;;;;41.22;13.93;;;;;;;1.99;95.26;97925.47;5345583;26;20048;-83
2023/01/27 08:48:35;;;;;;;40.75;14.95;;;;;;;1.84;94.96;97934.13;5344871;26;20428;-83
2023/01/27 08:51:03;;;;;;;40.33;14.87;;;;;;;2.05;93.96;97930.50;5344484;26;20113;-83
2023/01/27 08:53:30;;;;;;;40.70;14.55;;;;;;;1.79;95.90;97927.37;5345031;26;20079;-83
2023/01/27 08:56:01;;;;;;;36.88;14.02;;;;;;;2.07;94.89;97922.84;5344915;26;20676;-84
2023/01/27 08:58:28;;;;;;;40.08;14.25;;;;;;;2.22;93.41;97923.50;5324776;26;20069;-83
2023/01/27 09:00:58;;;;;;;;;;;;;;;2.02;94.78;97922.88;5345198;26;20071;-83
2023/01/27 09:03:25;;;;;;;36.67;12.63;;;;;;;2.13;94.45;97928.72;5344793;26;19975;-83
2023/01/27 09:05:51;;;;;;;41.83;15.35;;;;;;;2.00;94.58;97925.44;5345586;26;20105;-82
2023/01/27 09:08:18;;;;;;;34.35;12.88;;;;;;;1.89;95.42;97934.06;5345191;26;20056;-82
2023/01/27 09:10:45;;;;;;;;;;;;;;;1.77;96.77;97939.28;5345071;26;20056;-82
2023/01/27 09:13:12;;;;;;;40.67;15.13;;;;;;;2.19;94.50;97935.44;5344933;26;19967;-82
2023/01/27 09:15:39;;;;;;;;;;;;;;;2.05;95.47;97935.59;5345795;26;20078;-83
2023/01/27 09:18:06;;;;;;;33.53;12.82;;;;;;;1.94;96.51;97938.25;5325749;26;19979;-82
2023/01/27 09:20:35;;;;;;;34.95;13.52;;;;;;;2.25;92.84;97941.31;5346257;26;20056;-84
2023/01/27 09:23:04;;;;;;;40.47;13.43;;;;;;;2.14;94.67;97938.06;5348080;26;20097;-82
2023/01/27 09:25:30;;;;;;;37.72;14.63;;;;;;;2.00;94.03;97939.88;5356379;26;20041;-86
2023/01/27 09:27:58;;;;;;;32.78;12.23;;;;;;;1.35;98.87;97949.78;5345276;26;20123;-87
2023/01/27 09:30:27;;;;;;;38.20;12.95;;;;;;;1.75;97.34;97954.56;5346025;26;20121;-87
2023/01/27 09:32:58;;;;;;;33.28;12.80;;;;;;;1.55;99.29;97951.34;5344639;26;20075;-86
2023/01/27 09:35:26;;;;;;;40.38;15.60;;;;;;;1.75;98.61;97949.47;5347961;26;20049;-87
2023/01/27 09:37:57;;;;;;;42.35;16.02;;;;;;;1.87;96.88;97951.88;5349149;26;20450;-84
2023/01/27 09:40:42;;;;;;;37.35;13.90;;;;;;;1.86;96.68;97941.72;5331842;26;20047;-84
2023/01/27 09:43:16;;;;;;;39.42;13.02;;;;;;;1.62;97.31;97953.81;5354375;26;20056;-84
2023/01/27 09:45:55;;;;;;;36.25;13.57;;;;;;;1.89;97.36;97945.06;5352671;26;20057;-85
2023/01/27 09:48:26;;;;;;;38.30;14.55;;;;;;;1.92;96.81;97939.97;5329674;26;20119;-86
2023/01/27 09:51:07;;;;;;;36.33;13.57;;;;;;;2.28;95.15;97937.88;5325736;26;20085;-83
2023/01/27 09:54:13;;;;;;;36.85;13.85;;;;;;;1.98;95.64;97936.50;5334893;26;20050;-85
2023/01/27 09:56:59;;;;;;;40.55;14.07;;;;;;;1.96;95.18;97954.34;5355547;26;20024;-82
2023/01/27 10:00:06;;;;;;;36.10;14.15;;;;;;;2.48;92.25;97948.69;5353293;26;20059;-84
2023/01/27 10:02:50;;;;;;;39.53;15.57;;;;;;;2.64;92.77;97945.94;5353271;26;20098;-83
2023/01/27 10:05:43;;;;;;;42.80;15.02;;;;;;;2.43;94.06;97944.50;5356644;26;20048;-83
2023/01/27 10:08:17;;;;;;;43.83;16.52;;;;;;;2.62;94.01;97945.97;5335430;26;20056;-83
2023/01/27 10:10:57;;;;;;;41.50;16.75;;;;;;;2.79;92.60;97943.22;5352718;26;20064;-82
2023/01/27 10:13:28;;;;;;;36.03;13.32;;;;;;;3.04;90.93;97941.16;5334015;26;20508;-83
2023/01/27 10:16:08;;;;;;;38.78;14.90;;;;;;;2.84;92.18;97936.31;5349207;26;20106;-84
2023/01/27 10:18:46;;;;;;;40.38;14.40;;;;;;;3.01;92.03;97929.28;5349691;26;20029;-84
2023/01/27 10:21:50;;;;;;;39.30;14.95;;;;;;;2.17;95.40;97932.91;5330807;27;20076;-86
2023/01/27 10:24:36;;;;;;;38.55;15.05;;;;;;;2.92;93.38;97931.97;5329011;27;20059;-84
2023/01/27 10:27:18;;;;;;;39.35;14.98;;;;;;;2.14;95.41;97925.31;5331051;26;20100;-83
2023/01/27 10:32:56;;;;;;;38.47;14.77;;;;;;;2.51;96.46;97933.34;5298522;26;20034;-83
2023/01/27 10:35:46;;;;;;;39.72;15.18;;;;;;;2.68;95.35;97933.16;5292829;27;20061;-84
2023/01/27 10:39:06;;;;;;;35.30;14.05;;;;;;;2.80;94.84;97932.97;5302432;27;20049;-84
2023/01/27 10:42:00;;;;;;;34.45;13.77;;;;;;;2.84;92.94;97913.37;5312298;27;20036;-85
2023/01/27 10:44:42;;;;;;;;;;;;;;;2.76;94.44;97921.13;5300457;27;20107;-85
2023/01/27 10:47:37;;;;;;;33.38;12.40;;;;;;;2.51;96.06;97920.63;5300817;27;20006;-85
2023/01/27 10:50:08;;;;;;;33.50;12.85;;;;;;;2.74;93.67;97911.84;5305950;27;20049;-83
2023/01/27 10:52:58;;;;;;;33.20;14.05;;;;;;;2.70;94.28;97910.19;5290963;27;20102;-84
2023/01/27 10:55:32;;;;;;;28.42;10.88;;;;;;;2.81;92.96;97911.72;5305396;27;20056;-84
2023/01/27 10:58:35;;;;;;;34.03;13.65;;;;;;;2.30;96.72;97903.06;5306645;27;20069;-86
2023/01/27 11:01:06;;;;;;;34.97;13.95;;;;;;;2.41;96.05;97901.22;5302867;27;20049;-87
2023/01/27 11:03:57;;;;;;;32.00;12.83;;;;;;;2.47;98.36;97898.63;5304807;27;20055;-86
2023/01/27 11:06:29;;;;;;;33.50;12.95;;;;;;;2.65;94.96;97891.56;5306913;27;20064;-86
2023/01/27 11:09:15;;;;;;;27.85;11.18;;;;;;;2.75;92.96;97895.69;5313908;27;20118;-85
2023/01/27 11:11:48;;;;;;;30.55;13.20;;;;;;;2.51;94.03;97895.16;5303288;27;20026;-86
2023/01/27 11:14:29;;;;;;;29.65;12.18;;;;;;;2.65;94.22;97892.41;5309814;27;20045;-86
2023/01/27 11:17:35;;;;;;;28.48;11.88;;;;;;;3.27;89.79;97890.63;5311125;27;20076;-86
2023/01/27 11:20:28;;;;;;;27.25;12.32;;;;;;;3.01;91.40;97896.16;5312848;27;20021;-86
2023/01/27 11:23:25;;;;;;;25.05;9.98;;;;;;;2.80;90.44;97897.31;5309257;27;20085;-83
2023/01/27 11:26:13;;;;;;;25.98;10.50;;;;;;;2.82;88.56;97890.47;5304563;27;20048;-84
2023/01/27 11:28:54;;;;;;;25.37;11.77;;;;;;;2.48;89.57;97885.00;5304452;27;20065;-84
2023/01/27 11:31:42;;;;;;;27.02;10.95;;;;;;;2.53;91.09;97880.69;5305086;27;20028;-89
2023/01/27 11:34:32;;;;;;;28.27;12.48;;;;;;;2.53;91.49;97883.25;5287831;27;20068;-88
2023/01/27 11:37:01;;;;;;;29.15;12.32;;;;;;;2.69;89.93;97871.16;5304120;27;20048;-88
2023/01/27 11:39:31;;;;;;;31.10;13.15;;;;;;;2.77;88.25;97871.03;5304604;27;20073;-88
2023/01/27 11:41:58;;;;;;;25.85;11.38;;;;;;;2.43;91.20;97863.84;5304575;27;20130;-87
2023/01/27 11:44:31;;;;;;;32.85;13.55;;;;;;;2.39;89.66;97862.22;5323884;27;20052;-87
2023/01/27 11:46:58;;;;;;;29.42;11.90;;;;;;;2.44;89.18;97859.59;5324276;27;20339;-88
2023/01/27 11:49:38;;;;;;;27.65;11.43;;;;;;;2.35;88.64;97860.59;5324282;27;20361;-89
2023/01/27 11:52:11;;;;;;;28.17;12.30;;;;;;;1.98;90.91;97857.63;5324783;27;20493;-90
2023/01/27 11:54:46;;;;;;;32.28;13.13;;;;;;;2.21;91.73;97857.34;5305083;27;20052;-88
2023/01/27 11:57:22;;;;;;;30.75;12.50;;;;;;;2.14;90.34;97864.25;5304083;27;20257;-87
2023/01/27 12:00:03;;;;;;;31.85;13.45;;;;;;;2.49;89.98;97861.22;5323544;27;20202;-85
2023/01/27 12:03:08;;;;;;;29.15;13.23;;;;;;;2.70;88.27;97870.28;5323784;27;20064;-86
2023/01/27 12:05:40;;;;;;;28.27;12.25;;;;;;;2.90;86.54;97859.81;5296922;27;20130;-86
2023/01/27 12:08:07;;;;;;;31.12;14.32;;;;;;;2.38;89.58;97855.44;5304610;27;20415;-88
2023/01/27 12:10:39;;;;;;;;;;;;;;;2.95;87.72;97860.56;5303545;27;20115;-86
2023/01/27 12:13:24;;;;;;;31.65;13.68;;;;;;;2.44;88.47;97857.06;5320995;27;20438;-86
2023/01/27 12:15:54;;;;;;;29.92;12.63;;;;;;;2.77;86.39;97853.22;5322112;27;20049;-87
2023/01/27 12:18:25;;;;;;;30.15;12.35;;;;;;;2.89;87.05;97864.06;5322772;27;20063;-87
2023/01/27 12:21:03;;;;;;;30.25;12.75;;;;;;;2.96;86.12;97852.03;5323080;27;20064;-87
2023/01/27 12:23:34;;;;;;;29.33;13.32;;;;;;;2.60;87.82;97851.72;5303624;27;20061;-87
2023/01/27 12:26:06;;;;;;;29.75;13.43;;;;;;;2.36;85.76;97849.53;5323010;27;20056;-84
2023/01/27 12:28:34;;;;;;;31.95;13.57;;;;;;;2.29;86.42;97855.56;5324722;27;20400;-79